Neal, Kansas
Current Conditions -  °F | °C
As of 1:52 PM on Thursday 30 Oct 2014 (Local Time) from KCNU Reporting Station
Clear Clear  
Wind Chill: 71°   Ceiling: Unl
Heat Index: 71°   Visibility: 10mi
Dew Point: 38°   Wind: 20mph
Humidity: 30%   Direction: 310°NW
Pressure: 30.05"   Gusts: 30mph
Location:  37.83°N, 96.08°W
Report Text: KCNU 301852Z AUTO 31017G26KT 10SM CLR 22/03 A3005 RMK AO2 PK WND 32028/1823 SLP170 T02170033
Loading
Personal Weather Stations






























Interactive Weather Map
Tropical Storm Tracking
New forecast layout! Learn more

10-Day Weather Forecast

Advertisements
Track Severe Weather on mobile